Time;durP1;ratioP1;P1;durP2;ratioP2;P2;SDS_P1;SDS_P2;PMS_P1;PMS_P2;Temp;Humidity;BMP_temperature;BMP_pressure;BME280_temperature;BME280_humidity;BME280_pressure;Samples;Min_cycle;Max_cycle;Signal;HPM_P1;HPM_P2
2023/01/24 00:00:13;;;;;;;33.60;16.87;;;2.70;99.90;;;;;;4901208;29;20094;-86
2023/01/24 00:02:58;;;;;;;32.23;16.20;;;2.30;99.90;;;;;;4917379;29;20481;-86
2023/01/24 00:05:24;;;;;;;34.93;16.60;;;2.60;99.90;;;;;;4917934;29;20048;-86
2023/01/24 00:08:05;;;;;;;33.10;15.77;;;2.40;99.90;;;;;;4918214;29;20095;-86
2023/01/24 00:10:32;;;;;;;34.03;16.57;;;2.30;99.90;;;;;;4908719;29;20096;-85
2023/01/24 00:13:20;;;;;;;36.07;17.83;;;2.60;99.90;;;;;;4927750;28;20040;-86
2023/01/24 00:15:45;;;;;;;34.93;17.30;;;2.40;99.90;;;;;;4917787;29;20052;-88
2023/01/24 00:18:26;;;;;;;38.17;18.10;;;2.70;99.90;;;;;;4920745;28;20054;-88
2023/01/24 00:21:19;;;;;;;35.27;17.37;;;2.10;99.90;;;;;;4901825;29;20453;-88
2023/01/24 00:24:03;;;;;;;35.43;16.87;;;2.70;99.90;;;;;;4920993;23;20066;-88
2023/01/24 00:26:29;;;;;;;34.03;17.70;;;2.40;99.90;;;;;;4919586;29;20047;-86
2023/01/24 00:28:55;;;;;;;37.43;17.60;;;3.10;99.90;;;;;;4919758;29;20103;-85
2023/01/24 00:31:35;;;;;;;36.23;17.67;;;3.30;99.90;;;;;;4957350;23;20060;-86
2023/01/24 00:34:01;;;;;;;30.50;16.77;;;3.80;99.90;;;;;;4908607;23;20060;-85
2023/01/24 00:36:55;;;;;;;34.87;16.73;;;1.90;99.90;;;;;;4899037;29;20063;-85
2023/01/24 00:39:20;;;;;;;32.37;16.77;;;3.00;99.90;;;;;;4917439;29;20044;-85
2023/01/24 00:42:04;;;;;;;35.67;17.30;;;3.50;99.90;;;;;;4900412;29;20311;-86
2023/01/24 00:44:51;;;;;;;;;;;2.20;99.90;;;;;;4899913;29;20055;-85
2023/01/24 00:47:17;;;;;;;36.07;16.73;;;2.30;99.90;;;;;;4905904;28;19931;-86
2023/01/24 00:49:57;;;;;;;35.83;17.43;;;2.00;99.90;;;;;;4912799;29;20135;-86
2023/01/24 00:52:23;;;;;;;33.50;17.27;;;2.30;99.90;;;;;;4931430;23;20067;-86
2023/01/24 00:58:11;;;;;;;32.13;16.70;;;2.30;99.90;;;;;;4946495;23;20064;-86
2023/01/24 01:00:56;;;;;;;32.13;16.60;;;3.50;99.90;;;;;;4899591;29;20572;-86
2023/01/24 01:03:22;;;;;;;32.90;16.23;;;1.60;99.90;;;;;;4916914;29;20131;-86
2023/01/24 01:08:46;;;;;;;32.07;16.17;;;2.30;99.90;;;;;;4921269;23;20059;-85
2023/01/24 01:11:30;;;;;;;36.17;16.30;;;3.10;99.90;;;;;;4899873;29;20116;-85
2023/01/24 01:14:14;;;;;;;35.73;16.20;;;1.90;99.90;;;;;;4899035;29;20073;-86
2023/01/24 01:16:54;;;;;;;30.98;15.57;;;2.00;99.90;;;;;;4900015;29;20048;-86
2023/01/24 01:19:29;;;;;;;34.10;15.77;;;4.20;99.90;;;;;;4899259;29;20107;-86
2023/01/24 01:21:55;;;;;;;30.77;15.47;;;3.50;99.90;;;;;;4906213;23;20067;-86
2023/01/24 01:24:39;;;;;;;31.80;15.53;;;2.00;99.90;;;;;;4899408;29;20052;-87
2023/01/24 01:27:25;;;;;;;31.85;15.82;;;4.20;99.90;;;;;;4916324;29;20158;-86
2023/01/24 01:30:04;;;;;;;31.20;15.20;;;2.10;99.90;;;;;;4899219;29;20055;-86
2023/01/24 01:32:52;;;;;;;31.40;15.90;;;2.30;99.90;;;;;;4915194;23;20402;-86
2023/01/24 01:35:32;;;;;;;32.10;15.53;;;3.90;99.90;;;;;;4898844;29;20090;-86
2023/01/24 01:38:13;;;;;;;34.07;16.07;;;3.40;99.90;;;;;;4916267;29;20072;-86
2023/01/24 01:40:54;;;;;;;33.77;15.93;;;3.30;99.90;;;;;;4923303;23;20075;-86
2023/01/24 01:43:33;;;;;;;31.73;15.00;;;3.20;99.90;;;;;;4898729;29;20044;-87
2023/01/24 01:46:21;;;;;;;25.03;12.90;;;2.60;99.90;;;;;;4916455;29;20501;-86
2023/01/24 01:49:02;;;;;;;26.17;13.80;;;2.70;99.90;;;;;;4923199;29;20121;-86
2023/01/24 01:51:45;;;;;;;24.47;12.63;;;2.00;99.90;;;;;;4901944;29;20386;-86
2023/01/24 01:54:34;;;;;;;24.55;12.38;;;2.30;99.90;;;;;;4905931;23;20044;-86
2023/01/24 01:57:15;;;;;;;23.90;12.47;;;2.10;99.90;;;;;;4906599;29;20108;-86
2023/01/24 02:00:25;;;;;;;23.73;11.80;;;2.20;99.90;;;;;;4900310;23;21192;-86
2023/01/24 02:06:23;;;;;;;22.60;11.57;;;4.10;99.90;;;;;;4917025;29;20048;-87
2023/01/24 02:09:07;;;;;;;24.60;12.50;;;2.10;99.90;;;;;;4915929;29;20055;-86
2023/01/24 02:18:25;;;;;;;21.80;11.87;;;2.40;99.90;;;;;;4916340;29;20055;-86
2023/01/24 02:21:41;;;;;;;21.98;11.25;;;4.40;99.90;;;;;;4922753;23;20075;-86
2023/01/24 02:24:52;;;;;;;23.37;11.87;;;2.50;99.90;;;;;;4898446;29;20108;-87
2023/01/24 02:27:18;;;;;;;22.93;11.90;;;1.70;99.90;;;;;;4938049;28;20067;-87
2023/01/24 02:29:59;;;;;;;23.03;11.30;;;1.90;99.90;;;;;;4914996;29;20051;-86
2023/01/24 02:32:46;;;;;;;21.30;10.70;;;3.10;99.90;;;;;;4902019;29;20071;-87
2023/01/24 02:35:27;;;;;;;23.10;11.57;;;2.70;99.90;;;;;;4926673;23;20074;-86
2023/01/24 02:38:15;;;;;;;19.70;10.43;;;3.00;99.90;;;;;;4917426;29;20056;-87
2023/01/24 02:41:06;;;;;;;22.47;11.40;;;3.10;99.90;;;;;;4926515;23;20159;-86
2023/01/24 02:44:00;;;;;;;20.73;11.07;;;2.30;99.90;;;;;;4889782;29;20052;-87
2023/01/24 02:46:45;;;;;;;20.63;10.50;;;2.30;99.90;;;;;;4919075;29;20044;-87
2023/01/24 02:49:32;;;;;;;20.80;10.40;;;2.40;99.90;;;;;;4918848;29;20420;-87
2023/01/24 02:55:13;;;;;;;21.48;10.77;;;3.40;99.90;;;;;;4919159;29;20067;-86
2023/01/24 03:00:50;;;;;;;21.60;11.30;;;2.00;99.90;;;;;;4919363;29;20114;-87
2023/01/24 03:03:16;;;;;;;23.07;11.53;;;2.00;99.90;;;;;;4925169;23;20531;-87
2023/01/24 03:06:33;;;;;;;24.40;11.27;;;2.20;99.90;;;;;;4868953;29;20066;-86
2023/01/24 03:09:49;;;;;;;21.37;10.43;;;3.40;99.90;;;;;;4918405;29;20110;-87
2023/01/24 03:35:14;;;;;;;17.80;9.07;;;2.20;99.90;;;;;;4922642;29;20052;-86
2023/01/24 03:40:54;;;;;;;;;;;2.30;99.90;;;;;;4917817;29;20047;-86
2023/01/24 03:43:20;;;;;;;16.10;8.37;;;1.90;99.90;;;;;;4918695;29;19923;-87
2023/01/24 03:46:04;;;;;;;17.13;8.03;;;1.20;99.90;;;;;;4918650;29;20048;-87
2023/01/24 03:48:36;;;;;;;17.10;7.95;;;4.20;99.90;;;;;;4918643;29;20048;-87
2023/01/24 03:54:16;;;;;;;17.50;8.70;;;0.90;99.90;;;;;;4900738;29;20552;-87
2023/01/24 03:57:02;;;;;;;15.90;8.03;;;1.80;99.90;;;;;;4918419;29;20048;-86
2023/01/24 03:59:27;;;;;;;17.07;8.27;;;1.80;99.90;;;;;;4908619;23;20056;-87
2023/01/24 04:06:08;;;;;;;17.00;8.23;;;2.10;99.90;;;;;;4919959;23;20099;-87
2023/01/24 04:08:34;;;;;;;15.60;7.60;;;2.50;99.90;;;;;;4917685;29;20090;-86
2023/01/24 04:11:05;;;;;;;17.23;8.17;;;1.70;99.90;;;;;;4901029;29;20071;-87
2023/01/24 04:13:31;;;;;;;16.73;8.20;;;2.30;99.90;;;;;;4901133;29;20067;-86
2023/01/24 04:15:57;;;;;;;17.80;7.67;;;2.70;99.90;;;;;;4906683;23;20044;-87
2023/01/24 04:18:48;;;;;;;15.47;7.27;;;3.10;99.90;;;;;;4900532;29;20048;-87
2023/01/24 04:21:32;;;;;;;16.83;8.47;;;4.00;99.90;;;;;;4917367;29;20119;-87
2023/01/24 04:24:16;;;;;;;14.95;7.55;;;1.90;99.90;;;;;;4904735;29;20040;-87
2023/01/24 04:27:00;;;;;;;;;;;3.20;99.90;;;;;;4889881;29;20460;-86
2023/01/24 04:29:25;;;;;;;15.97;7.67;;;2.70;99.90;;;;;;4881146;29;19923;-87
2023/01/24 04:32:03;;;;;;;14.97;7.63;;;1.90;99.90;;;;;;4881795;29;20140;-87
2023/01/24 04:34:29;;;;;;;16.70;7.97;;;2.20;99.90;;;;;;4893835;23;20050;-87
2023/01/24 04:37:16;;;;;;;16.70;8.20;;;2.30;99.90;;;;;;4898866;29;20048;-87
2023/01/24 04:40:33;;;;;;;16.30;8.50;;;1.80;99.90;;;;;;4923941;23;20151;-87
2023/01/24 04:44:08;;;;;;;17.23;8.13;;;1.90;99.90;;;;;;4894206;29;20123;-87
2023/01/24 04:46:59;;;;;;;16.65;8.00;;;3.40;99.90;;;;;;4880838;29;20060;-86
2023/01/24 04:49:30;;;;;;;18.40;8.20;;;1.40;99.90;;;;;;4881359;29;20052;-87
2023/01/24 04:52:05;;;;;;;16.10;8.20;;;1.90;99.90;;;;;;4880557;29;20044;-87
2023/01/24 04:54:40;;;;;;;16.13;8.23;;;4.30;99.90;;;;;;4881750;29;20052;-87
2023/01/24 04:57:40;;;;;;;17.73;8.43;;;1.80;99.90;;;;;;4880614;29;20053;-87
2023/01/24 05:00:24;;;;;;;15.70;7.53;;;2.80;99.90;;;;;;4897418;29;20064;-86
2023/01/24 05:05:36;;;;;;;15.77;7.83;;;2.00;99.90;;;;;;5537352;23;20340;-86
2023/01/24 05:08:23;;;;;;;15.90;7.73;;;1.80;99.90;;;;;;4900194;29;20074;-87
2023/01/24 05:11:02;;;;;;;17.80;8.67;;;2.70;99.90;;;;;;4903103;29;20079;-87
2023/01/24 05:13:43;;;;;;;16.97;8.57;;;2.10;99.90;;;;;;4903017;29;20044;-87
2023/01/24 05:16:18;;;;;;;17.63;8.33;;;1.90;99.90;;;;;;4899776;29;20058;-87
2023/01/24 05:18:50;;;;;;;16.77;7.77;;;2.90;99.90;;;;;;4898986;29;20048;-86
2023/01/24 05:21:29;;;;;;;16.13;8.00;;;3.60;99.90;;;;;;4900314;29;20052;-86
2023/01/24 05:24:09;;;;;;;18.87;9.13;;;2.10;99.90;;;;;;4900168;29;20052;-86
2023/01/24 05:26:50;;;;;;;16.63;8.23;;;2.00;99.90;;;;;;4899796;29;20052;-87
2023/01/24 05:29:25;;;;;;;15.97;8.00;;;2.40;99.90;;;;;;4923671;29;20111;-86
2023/01/24 05:31:50;;;;;;;17.20;8.07;;;1.70;99.90;;;;;;4909782;29;20044;-87
2023/01/24 05:34:28;;;;;;;18.23;9.10;;;3.10;99.90;;;;;;4900062;29;20052;-87
2023/01/24 05:37:19;;;;;;;17.53;8.53;;;2.20;99.90;;;;;;4906309;23;20450;-86
2023/01/24 05:39:57;;;;;;;18.20;8.73;;;2.10;99.90;;;;;;4915889;29;20044;-87
2023/01/24 05:42:44;;;;;;;17.50;9.00;;;2.00;99.90;;;;;;4916744;29;20051;-87
2023/01/24 05:47:58;;;;;;;18.17;8.90;;;2.10;99.90;;;;;;5019127;23;20045;-86
2023/01/24 05:50:39;;;;;;;18.13;8.97;;;2.00;99.90;;;;;;4916795;29;20509;-86
2023/01/24 05:53:04;;;;;;;18.13;8.73;;;3.50;99.90;;;;;;4916451;29;20099;-87
2023/01/24 05:55:45;;;;;;;16.37;8.17;;;2.80;99.90;;;;;;4898891;29;20142;-87
2023/01/24 05:58:34;;;;;;;17.17;8.20;;;2.00;99.90;;;;;;4899286;29;20048;-87
2023/01/24 06:01:21;;;;;;;17.93;8.67;;;1.50;99.90;;;;;;4957306;23;20044;-87
2023/01/24 06:04:49;;;;;;;16.43;8.53;;;2.10;99.90;;;;;;4899361;29;20095;-86
2023/01/24 06:11:41;;;;;;;16.75;8.68;;;1.00;99.90;;;;;;4902539;29;20131;-87
2023/01/24 06:14:13;;;;;;;17.77;8.83;;;2.00;99.90;;;;;;4925997;23;20432;-87
2023/01/24 06:20:20;;;;;;;17.33;8.63;;;1.20;99.90;;;;;;4902019;29;20056;-87
2023/01/24 06:22:55;;;;;;;17.70;8.73;;;1.90;99.90;;;;;;4918081;23;20056;-87
2023/01/24 06:25:24;;;;;;;18.43;8.80;;;2.00;99.90;;;;;;4916281;23;20056;-87
2023/01/24 06:27:55;;;;;;;18.50;9.10;;;1.90;99.90;;;;;;4919697;29;20063;-86
2023/01/24 06:33:56;;;;;;;17.83;9.83;;;2.00;99.90;;;;;;4923767;23;20048;-87
2023/01/24 06:37:28;;;;;;;18.17;9.13;;;1.50;99.90;;;;;;4901695;29;20131;-87
2023/01/24 06:41:03;;;;;;;17.27;8.80;;;1.30;99.90;;;;;;4902084;29;20067;-87
2023/01/24 06:44:34;;;;;;;17.47;9.23;;;1.10;99.90;;;;;;4921635;29;20084;-87
2023/01/24 06:48:07;;;;;;;17.07;9.47;;;1.10;99.90;;;;;;4909321;29;20052;-88
2023/01/24 06:50:36;;;;;;;16.23;8.53;;;1.40;99.90;;;;;;4902887;29;20113;-87
2023/01/24 06:53:12;;;;;;;17.20;8.70;;;2.70;99.90;;;;;;4884221;29;20090;-87
2023/01/24 06:55:38;;;;;;;18.33;8.73;;;2.30;99.90;;;;;;4900477;29;20058;-87
2023/01/24 06:58:04;;;;;;;17.77;9.37;;;1.40;99.90;;;;;;4882636;29;20053;-87
2023/01/24 07:00:36;;;;;;;17.13;8.73;;;2.10;99.90;;;;;;4900085;29;20045;-87
2023/01/24 07:03:07;;;;;;;16.17;8.80;;;1.60;99.90;;;;;;4883282;29;20062;-88
2023/01/24 07:05:39;;;;;;;16.83;8.70;;;1.90;99.90;;;;;;4903203;23;20084;-88
2023/01/24 07:08:05;;;;;;;17.40;8.67;;;3.90;99.90;;;;;;4918470;29;20047;-88
2023/01/24 07:10:40;;;;;;;16.40;8.80;;;1.60;99.90;;;;;;4902380;29;20483;-86
2023/01/24 07:13:09;;;;;;;19.33;9.57;;;2.00;99.90;;;;;;4918769;29;20048;-83
2023/01/24 07:15:43;;;;;;;18.77;9.33;;;1.60;99.90;;;;;;4902286;29;20052;-85
2023/01/24 07:18:17;;;;;;;18.23;9.20;;;1.60;99.90;;;;;;4900186;29;20079;-85
2023/01/24 07:20:46;;;;;;;17.20;9.68;;;1.80;99.90;;;;;;4902274;29;20061;-85
2023/01/24 07:23:45;;;;;;;17.03;8.93;;;1.90;99.90;;;;;;4901728;29;20048;-85
2023/01/24 07:26:12;;;;;;;18.70;9.37;;;1.90;99.90;;;;;;4901018;29;20543;-83
2023/01/24 07:28:47;;;;;;;17.97;9.77;;;0.70;99.90;;;;;;4902035;29;20059;-84
2023/01/24 07:31:14;;;;;;;18.03;9.43;;;2.20;99.90;;;;;;4918876;29;20047;-84
2023/01/24 07:33:57;;;;;;;17.47;9.77;;;2.60;99.90;;;;;;4900864;29;20070;-84
2023/01/24 07:37:00;;;;;;;17.53;9.43;;;3.30;99.90;;;;;;4901743;29;20841;-84
2023/01/24 07:39:50;;;;;;;19.37;9.97;;;1.70;99.90;;;;;;4898008;29;20099;-84
2023/01/24 07:42:31;;;;;;;17.93;9.70;;;2.40;99.90;;;;;;4900832;29;20079;-84
2023/01/24 07:45:12;;;;;;;18.13;9.63;;;1.80;99.90;;;;;;4917400;29;20044;-83
2023/01/24 07:47:44;;;;;;;17.70;10.27;;;2.30;99.90;;;;;;4900329;29;20130;-84
2023/01/24 07:50:33;;;;;;;18.30;9.67;;;1.60;99.90;;;;;;4900135;29;20048;-84
2023/01/24 07:53:00;;;;;;;18.93;10.23;;;1.50;99.90;;;;;;4916181;29;20179;-83
2023/01/24 07:58:12;;;;;;;18.43;9.80;;;1.80;99.90;;;;;;4923202;23;20120;-83
2023/01/24 08:00:37;;;;;;;18.70;10.50;;;1.50;99.90;;;;;;4899587;29;20048;-86
2023/01/24 08:03:11;;;;;;;19.00;10.10;;;2.80;99.90;;;;;;4917041;29;20493;-86
2023/01/24 08:05:53;;;;;;;;;;;1.50;99.90;;;;;;4904835;29;20044;-84
2023/01/24 08:08:33;;;;;;;17.53;9.60;;;1.80;99.90;;;;;;4921006;29;19931;-84
2023/01/24 08:11:17;;;;;;;19.27;10.60;;;1.50;99.90;;;;;;4899413;29;20047;-84
2023/01/24 08:13:52;;;;;;;18.85;10.20;;;3.30;99.90;;;;;;4898743;29;20044;-84
2023/01/24 08:16:33;;;;;;;19.27;10.60;;;2.20;99.90;;;;;;4896732;29;20048;-85
2023/01/24 08:19:13;;;;;;;19.70;10.47;;;1.30;99.90;;;;;;4903778;29;20158;-84
2023/01/24 08:21:57;;;;;;;19.53;10.67;;;2.80;99.90;;;;;;4887806;29;20502;-84
2023/01/24 08:24:23;;;;;;;18.33;10.27;;;2.20;99.90;;;;;;4900968;29;20056;-85
2023/01/24 08:30:34;;;;;;;19.13;10.57;;;2.90;99.90;;;;;;4910450;29;20488;-84
2023/01/24 08:33:20;;;;;;;19.10;11.07;;;2.80;99.90;;;;;;4891918;29;20056;-85
2023/01/24 08:35:51;;;;;;;20.33;10.33;;;3.60;99.90;;;;;;4901025;29;20048;-84
2023/01/24 08:38:32;;;;;;;19.27;10.57;;;4.10;99.90;;;;;;4899104;29;20051;-84
2023/01/24 08:41:12;;;;;;;18.30;9.80;;;1.60;99.90;;;;;;4899467;29;20040;-84
2023/01/24 08:43:53;;;;;;;18.37;10.20;;;2.50;99.90;;;;;;4930241;29;20071;-85
2023/01/24 08:46:18;;;;;;;17.97;9.77;;;3.30;99.90;;;;;;4899861;29;20052;-84
2023/01/24 08:48:52;;;;;;;17.37;9.80;;;3.40;99.90;;;;;;4913121;29;20040;-84
2023/01/24 08:51:58;;;;;;;;;;;1.80;99.90;;;;;;4955081;23;20056;-85
2023/01/24 08:55:02;;;;;;;19.57;10.90;;;1.90;99.90;;;;;;4928251;29;20024;-84
2023/01/24 09:01:10;;;;;;;17.47;10.13;;;0.20;99.90;;;;;;4918256;29;20048;-83
2023/01/24 09:03:54;;;;;;;18.10;10.37;;;2.00;99.90;;;;;;4934823;29;20082;-83
2023/01/24 09:06:20;;;;;;;19.13;10.38;;;3.20;99.90;;;;;;4935353;29;20036;-84
2023/01/24 09:08:55;;;;;;;19.53;9.77;;;2.20;99.90;;;;;;4916600;29;20134;-83
2023/01/24 09:11:33;;;;;;;17.97;10.00;;;3.50;99.90;;;;;;4917712;29;20051;-83
2023/01/24 09:13:59;;;;;;;19.03;10.63;;;2.10;99.90;;;;;;4934561;29;20130;-83
2023/01/24 09:16:54;;;;;;;17.17;9.73;;;1.80;99.90;;;;;;4917698;29;20134;-84
2023/01/24 09:19:19;;;;;;;18.30;10.20;;;2.20;99.90;;;;;;4916495;29;20043;-84
2023/01/24 09:22:36;;;;;;;17.83;10.00;;;1.50;99.90;;;;;;4917577;29;20050;-84
2023/01/24 09:25:03;;;;;;;18.43;10.10;;;1.20;99.90;;;;;;4852331;29;20506;-83
2023/01/24 09:28:04;;;;;;;17.23;9.47;;;3.30;99.90;;;;;;4870473;29;20081;-84
2023/01/24 09:30:51;;;;;;;19.47;10.63;;;2.20;99.90;;;;;;4890849;29;20047;-84
2023/01/24 09:33:38;;;;;;;17.70;10.13;;;2.30;99.90;;;;;;4934486;29;20238;-83
2023/01/24 09:36:15;;;;;;;19.53;10.00;;;1.20;99.90;;;;;;4924163;29;20136;-84
2023/01/24 09:38:57;;;;;;;17.07;9.67;;;2.30;99.90;;;;;;4912891;29;20105;-84
2023/01/24 09:41:32;;;;;;;19.37;10.13;;;2.10;99.90;;;;;;4918677;29;20051;-83
2023/01/24 09:44:30;;;;;;;18.03;9.47;;;1.90;99.90;;;;;;4937889;29;20047;-84
2023/01/24 09:47:12;;;;;;;18.63;10.57;;;1.20;99.90;;;;;;4880186;29;20148;-83
2023/01/24 09:49:58;;;;;;;18.87;10.17;;;1.60;99.90;;;;;;4928871;29;20067;-83
2023/01/24 09:52:57;;;;;;;17.30;9.73;;;2.20;99.90;;;;;;4931508;29;20462;-84
2023/01/24 09:55:42;;;;;;;19.27;10.03;;;2.30;99.90;;;;;;4927291;29;20074;-84
2023/01/24 09:58:31;;;;;;;17.90;10.17;;;3.20;99.90;;;;;;4952436;23;20083;-85
2023/01/24 10:02:00;;;;;;;18.43;10.03;;;2.70;99.90;;;;;;4903920;29;20078;-83
2023/01/24 10:05:16;;;;;;;18.33;9.57;;;3.10;99.90;;;;;;4924656;29;20056;-84
2023/01/24 10:08:32;;;;;;;20.10;10.90;;;1.10;99.90;;;;;;4919116;29;20044;-85
2023/01/24 10:12:05;;;;;;;18.07;10.10;;;2.70;99.90;;;;;;4918459;29;20095;-85
2023/01/24 10:15:26;;;;;;;18.80;9.53;;;3.10;99.90;;;;;;4920462;29;20547;-85
2023/01/24 10:18:39;;;;;;;18.17;10.03;;;0.40;99.90;;;;;;4908346;29;20067;-85
2023/01/24 10:21:58;;;;;;;20.00;10.20;;;1.90;99.90;;;;;;4904128;29;20065;-85
2023/01/24 10:27:43;;;;;;;19.40;10.93;;;2.40;99.90;;;;;;4904987;29;20597;-86
2023/01/24 10:30:53;;;;;;;19.17;10.53;;;2.30;99.90;;;;;;4901932;29;20052;-85
2023/01/24 10:33:53;;;;;;;;;;;;;;;;;;;;;
2023/01/24 10:37:08;;;;;;;18.70;10.13;;;2.40;99.90;;;;;;4801306;29;20057;-85
2023/01/24 10:39:34;;;;;;;19.97;11.03;;;1.30;99.90;;;;;;4828933;29;20061;-84
2023/01/24 10:42:36;;;;;;;20.40;11.13;;;2.50;99.90;;;;;;4843961;29;20049;-84
2023/01/24 10:46:06;;;;;;;18.80;10.17;;;2.90;99.90;;;;;;4828942;29;20049;-84
2023/01/24 10:49:07;;;;;;;18.87;10.17;;;2.80;99.90;;;;;;4817954;29;20053;-84
2023/01/24 10:52:18;;;;;;;17.30;10.20;;;2.00;99.90;;;;;;4828984;29;20062;-84
2023/01/24 10:55:30;;;;;;;18.50;10.37;;;2.20;99.90;;;;;;4840974;29;20077;-84
2023/01/24 10:58:17;;;;;;;17.60;9.80;;;1.90;99.90;;;;;;4840394;29;20681;-85
2023/01/24 11:01:46;;;;;;;18.53;9.83;;;2.00;99.90;;;;;;4841425;29;20081;-85
2023/01/24 11:04:37;;;;;;;19.77;10.10;;;1.60;99.90;;;;;;4885435;29;20087;-85
2023/01/24 11:07:42;;;;;;;17.73;9.67;;;2.10;99.90;;;;;;4900899;29;20047;-85
2023/01/24 11:10:55;;;;;;;18.80;10.53;;;1.00;99.90;;;;;;4840181;29;20610;-85
2023/01/24 11:13:43;;;;;;;18.40;10.47;;;2.20;99.90;;;;;;4891517;29;20122;-85
2023/01/24 11:16:18;;;;;;;18.97;10.40;;;1.90;99.90;;;;;;4918016;29;20140;-85
2023/01/24 11:22:02;;;;;;;17.75;9.98;;;2.80;99.90;;;;;;4900845;29;20127;-85
2023/01/24 11:24:46;;;;;;;17.87;10.07;;;3.30;99.90;;;;;;4900468;29;20071;-84
2023/01/24 11:28:04;;;;;;;18.15;10.73;;;4.20;99.90;;;;;;4901007;29;20040;-84
2023/01/24 11:30:45;;;;;;;19.50;10.60;;;2.70;99.90;;;;;;4905085;29;20051;-84
2023/01/24 11:33:48;;;;;;;18.43;9.60;;;4.10;99.90;;;;;;4900955;29;20396;-86
2023/01/24 11:37:06;;;;;;;17.87;9.87;;;2.20;99.90;;;;;;4900497;29;20048;-86
2023/01/24 11:39:53;;;;;;;17.53;9.37;;;2.20;99.90;;;;;;4901741;29;20060;-85
2023/01/24 11:43:09;;;;;;;17.67;9.93;;;2.10;99.90;;;;;;4901424;29;20520;-86
2023/01/24 11:46:25;;;;;;;17.97;10.63;;;2.00;99.90;;;;;;4904752;29;20044;-86
2023/01/24 11:49:10;;;;;;;17.97;9.97;;;2.30;99.90;;;;;;4932280;28;20044;-86
2023/01/24 11:55:53;;;;;;;20.43;10.10;;;2.40;99.90;;;;;;4901012;29;20052;-86
2023/01/24 12:02:50;;;;;;;20.73;11.17;;;2.20;99.90;;;;;;4907276;29;20506;-86
2023/01/24 12:05:39;;;;;;;18.08;10.65;;;2.20;99.90;;;;;;4917383;29;20111;-86
2023/01/24 12:08:24;;;;;;;19.17;10.23;;;2.00;99.90;;;;;;4899331;29;20099;-85
2023/01/24 12:11:10;;;;;;;17.03;9.90;;;2.10;99.90;;;;;;4899113;29;20325;-84
2023/01/24 12:14:25;;;;;;;18.53;10.10;;;3.80;99.90;;;;;;4916523;29;20040;-84
2023/01/24 12:20:24;;;;;;;18.73;10.73;;;2.10;99.90;;;;;;4861677;29;20064;-84
2023/01/24 12:23:29;;;;;;;17.77;9.87;;;2.60;99.90;;;;;;4861447;29;20065;-84
2023/01/24 12:26:32;;;;;;;18.23;10.40;;;2.20;99.90;;;;;;4868068;29;20068;-84
2023/01/24 12:29:30;;;;;;;16.57;9.50;;;1.80;99.90;;;;;;4861737;29;20056;-84
2023/01/24 12:32:53;;;;;;;19.50;10.77;;;2.20;99.90;;;;;;4861468;29;20140;-85
2023/01/24 12:35:41;;;;;;;18.37;10.27;;;2.10;99.90;;;;;;4898581;29;20135;-84
2023/01/24 12:38:34;;;;;;;18.73;10.17;;;1.90;99.90;;;;;;4899634;29;20052;-85
2023/01/24 12:41:48;;;;;;;19.43;10.87;;;2.20;99.90;;;;;;4899208;29;20059;-84
2023/01/24 12:44:31;;;;;;;18.93;10.73;;;2.40;99.90;;;;;;4870603;29;20076;-85
2023/01/24 12:47:45;;;;;;;17.17;9.97;;;2.00;99.90;;;;;;4909235;23;20417;-85
2023/01/24 12:50:36;;;;;;;16.50;9.47;;;0.80;99.90;;;;;;4885598;29;20053;-85
2023/01/24 12:53:47;;;;;;;17.57;10.37;;;2.30;99.90;;;;;;4880542;29;20051;-84
2023/01/24 12:56:37;;;;;;;17.80;10.07;;;2.10;99.90;;;;;;4879521;29;20438;-85
2023/01/24 12:59:46;;;;;;;16.80;9.57;;;2.10;99.90;;;;;;4879634;29;20060;-84
2023/01/24 13:02:48;;;;;;;17.43;9.63;;;1.80;99.90;;;;;;4904508;29;20056;-84
2023/01/24 13:05:41;;;;;;;17.60;9.60;;;2.10;99.90;;;;;;4901415;29;20060;-85
2023/01/24 13:08:32;;;;;;;16.90;9.73;;;2.10;99.90;;;;;;4871564;29;20532;-85
2023/01/24 13:11:50;;;;;;;18.57;10.33;;;1.60;99.90;;;;;;4856697;29;20116;-84
2023/01/24 13:14:36;;;;;;;17.33;9.73;;;1.50;99.90;;;;;;4882310;29;20053;-85
2023/01/24 13:17:23;;;;;;;16.87;9.23;;;2.90;99.90;;;;;;4894165;29;20040;-83
2023/01/24 13:20:21;;;;;;;16.67;9.87;;;3.20;99.90;;;;;;4862028;29;20506;-84
2023/01/24 13:23:45;;;;;;;18.53;10.60;;;1.90;99.90;;;;;;4878630;29;20045;-84
2023/01/24 13:26:48;;;;;;;17.13;9.63;;;2.10;99.90;;;;;;4878615;29;20528;-85
2023/01/24 13:30:04;;;;;;;18.70;10.17;;;1.60;99.90;;;;;;4862428;29;20061;-84
2023/01/24 13:32:35;;;;;;;18.20;10.63;;;1.90;99.90;;;;;;4865949;29;20501;-84
2023/01/24 13:35:36;;;;;;;18.17;9.93;;;1.80;99.90;;;;;;4879569;29;20131;-85
2023/01/24 13:38:26;;;;;;;17.97;10.13;;;1.90;99.90;;;;;;4896858;29;20048;-84
2023/01/24 13:41:25;;;;;;;19.53;10.47;;;1.90;99.90;;;;;;4894330;29;20514;-84
2023/01/24 13:44:24;;;;;;;17.63;10.13;;;2.20;99.90;;;;;;4858363;29;20547;-84
2023/01/24 13:49:44;;;;;;;17.60;10.03;;;1.90;99.90;;;;;;4914787;29;20072;-82
2023/01/24 13:52:31;;;;;;;19.07;11.00;;;3.30;99.90;;;;;;4915701;29;20075;-83
2023/01/24 13:55:04;;;;;;;17.23;10.23;;;2.00;99.90;;;;;;4899073;29;20103;-85
2023/01/24 13:57:36;;;;;;;18.53;10.60;;;1.70;99.90;;;;;;4916668;29;20126;-83
2023/01/24 14:00:27;;;;;;;19.43;10.40;;;1.70;99.90;;;;;;4908828;29;20092;-83
2023/01/24 14:03:36;;;;;;;18.53;10.17;;;1.70;99.90;;;;;;4897468;29;20561;-83
2023/01/24 14:06:17;;;;;;;17.10;10.13;;;2.10;99.90;;;;;;4913895;29;20114;-84
2023/01/24 14:09:12;;;;;;;17.53;9.97;;;1.90;99.90;;;;;;4916301;29;20100;-82
2023/01/24 14:12:04;;;;;;;18.67;10.33;;;1.90;99.90;;;;;;4899016;29;20111;-81
2023/01/24 14:18:48;;;;;;;18.07;10.47;;;1.70;99.90;;;;;;4924735;29;20048;-82
2023/01/24 14:21:20;;;;;;;17.43;10.17;;;1.80;99.90;;;;;;4891947;29;20056;-81
2023/01/24 14:23:52;;;;;;;18.83;10.20;;;1.70;99.90;;;;;;4899157;29;20086;-81
2023/01/24 14:26:26;;;;;;;17.83;10.40;;;1.70;99.90;;;;;;4889992;29;20041;-81
2023/01/24 14:28:55;;;;;;;18.10;10.23;;;1.70;99.90;;;;;;4898073;29;20473;-81
2023/01/24 14:31:34;;;;;;;19.73;10.40;;;1.70;99.90;;;;;;4900640;29;20524;-81
2023/01/24 14:34:15;;;;;;;18.20;10.67;;;1.70;99.90;;;;;;4883374;29;20780;-81
2023/01/24 14:36:44;;;;;;;17.60;10.17;;;1.60;99.90;;;;;;4883963;29;20490;-81
2023/01/24 14:39:30;;;;;;;17.67;10.20;;;1.70;99.90;;;;;;4903811;29;20087;-81
2023/01/24 14:42:01;;;;;;;17.27;10.10;;;1.60;99.90;;;;;;4901236;29;20060;-81
2023/01/24 14:44:28;;;;;;;18.97;10.40;;;1.60;99.90;;;;;;4900438;29;20477;-81
2023/01/24 14:47:01;;;;;;;17.03;10.33;;;1.60;99.90;;;;;;4903429;29;20490;-81
2023/01/24 14:49:30;;;;;;;18.83;10.70;;;1.60;99.90;;;;;;4900682;29;20057;-82
2023/01/24 14:51:56;;;;;;;18.20;10.73;;;1.60;99.90;;;;;;4883836;29;20140;-83
2023/01/24 14:54:24;;;;;;;19.27;10.57;;;1.60;99.90;;;;;;4883241;29;20211;-82
2023/01/24 14:56:50;;;;;;;18.73;10.87;;;1.60;99.90;;;;;;4882211;29;20044;-82
2023/01/24 14:59:20;;;;;;;18.70;10.63;;;1.60;99.90;;;;;;4884102;29;20045;-82
2023/01/24 15:01:51;;;;;;;17.93;10.47;;;1.50;99.90;;;;;;4883063;29;20051;-82
2023/01/24 15:04:29;;;;;;;19.33;10.87;;;1.50;99.90;;;;;;4883376;29;20437;-82
2023/01/24 15:07:12;;;;;;;17.77;10.40;;;1.50;99.90;;;;;;4883180;29;20397;-82
2023/01/24 15:09:39;;;;;;;19.33;11.20;;;1.50;99.90;;;;;;4899344;29;20096;-82
2023/01/24 15:12:19;;;;;;;18.93;10.77;;;1.50;99.90;;;;;;4899530;29;20581;-82
2023/01/24 15:14:51;;;;;;;18.50;11.07;;;1.50;99.90;;;;;;4900517;29;20119;-83
2023/01/24 15:17:21;;;;;;;20.23;11.43;;;1.50;99.90;;;;;;4899411;29;20048;-82
2023/01/24 15:19:55;;;;;;;19.37;10.80;;;1.50;99.90;;;;;;4883276;29;20048;-82
2023/01/24 15:22:22;;;;;;;18.58;10.88;;;1.50;99.90;;;;;;4898527;29;20064;-82
2023/01/24 15:24:54;;;;;;;19.30;11.07;;;1.40;99.90;;;;;;4898675;29;20048;-83
2023/01/24 15:27:24;;;;;;;19.60;11.20;;;1.40;99.90;;;;;;4899959;29;20105;-83
2023/01/24 15:30:11;;;;;;;20.23;11.20;;;1.40;99.90;;;;;;4903995;29;20047;-82
2023/01/24 15:32:41;;;;;;;19.47;11.13;;;1.40;99.90;;;;;;4900598;29;20044;-81
2023/01/24 15:35:24;;;;;;;21.43;11.03;;;1.30;99.90;;;;;;4917442;29;20820;-81
2023/01/24 15:38:05;;;;;;;19.27;11.15;;;1.40;99.90;;;;;;4898688;29;20076;-80
2023/01/24 15:40:32;;;;;;;21.27;11.00;;;1.30;99.90;;;;;;4916412;29;20079;-81
2023/01/24 15:45:50;;;;;;;18.07;10.77;;;1.30;99.90;;;;;;4908148;29;20079;-82
2023/01/24 15:48:24;;;;;;;20.08;11.27;;;1.30;99.90;;;;;;4900570;29;20123;-82
2023/01/24 15:51:06;;;;;;;;;;;2.60;99.90;;;;;;4900661;29;20048;-82
2023/01/24 15:53:34;;;;;;;19.57;11.33;;;2.70;99.90;;;;;;4917161;29;20013;-82
2023/01/24 15:56:05;;;;;;;19.43;11.37;;;1.30;99.90;;;;;;4906642;29;20088;-81
2023/01/24 15:58:33;;;;;;;19.33;11.80;;;1.30;99.90;;;;;;4898059;29;20056;-81
2023/01/24 16:00:59;;;;;;;19.03;10.97;;;2.60;99.90;;;;;;4882098;29;20083;-81